createdAt,value
2022-11-09T00:03:14.279Z,49.25
2022-11-09T00:05:48.948Z,48.00
2022-11-09T00:08:19.228Z,49.50
2022-11-09T00:10:49.503Z,58.75
2022-11-09T00:13:20.710Z,65.00
2022-11-09T00:15:51.529Z,63.50
2022-11-09T00:18:21.767Z,54.75
2022-11-09T00:20:51.993Z,60.00
2022-11-09T00:23:25.489Z,70.50
2022-11-09T00:26:01.254Z,74.50
2022-11-09T00:28:36.657Z,75.50
2022-11-09T00:31:09.843Z,70.00
2022-11-09T00:33:40.230Z,72.50
2022-11-09T00:36:14.337Z,69.25
2022-11-09T00:38:47.473Z,71.25
2022-11-09T00:41:38.298Z,72.75
2022-11-09T00:44:08.639Z,70.00
2022-11-09T00:46:39.614Z,82.50
2022-11-09T00:49:12.951Z,84.50
2022-11-09T00:51:46.025Z,80.50
2022-11-09T00:54:18.882Z,79.50
2022-11-09T00:56:51.763Z,91.75
2022-11-09T00:59:22.664Z,88.75
2022-11-09T01:01:54.292Z,84.75
2022-11-09T01:04:27.572Z,88.50
2022-11-09T01:06:58.420Z,96.50
2022-11-09T01:09:29.886Z,87.00
2022-11-09T01:12:03.238Z,98.50
2022-11-09T01:14:38.351Z,78.25
2022-11-09T01:17:11.091Z,98.50
2022-11-09T01:19:41.406Z,91.00
2022-11-09T01:22:12.527Z,94.75
2022-11-09T01:24:45.209Z,91.25
2022-11-09T01:27:15.586Z,93.00
2022-11-09T01:29:46.003Z,90.25
2022-11-09T01:32:16.374Z,86.25
2022-11-09T01:34:47.769Z,84.50
2022-11-09T01:37:18.352Z,85.75
2022-11-09T01:39:49.329Z,86.50
2022-11-09T01:42:24.967Z,81.25
2022-11-09T01:56:53.119Z,105.00
2022-11-09T01:59:26.284Z,70.00
2022-11-09T02:02:01.715Z,68.00
2022-11-09T02:07:27.012Z,61.00
2022-11-09T02:10:16.052Z,55.75
2022-11-09T02:12:49.089Z,56.75
2022-11-09T02:15:19.653Z,63.75
2022-11-09T02:17:55.691Z,60.50
2022-11-09T02:20:31.787Z,54.00
2022-11-09T02:23:02.716Z,58.50
2022-11-09T02:25:38.663Z,58.00
2022-11-09T02:28:09.837Z,50.75
2022-11-09T02:30:42.478Z,59.25
2022-11-09T02:33:14.145Z,64.25
2022-11-09T02:35:45.136Z,53.25
2022-11-09T02:38:16.167Z,58.75
2022-11-09T02:40:49.588Z,56.00
2022-11-09T02:43:20.794Z,59.50
2022-11-09T02:45:51.621Z,59.75
2022-11-09T02:48:21.960Z,58.50
2022-11-09T02:50:52.611Z,48.75
2022-11-09T02:53:23.412Z,54.75
2022-11-09T02:55:56.734Z,58.00
2022-11-09T02:58:25.660Z,57.50
2022-11-09T03:00:57.430Z,55.75
2022-11-09T03:03:27.728Z,54.00
2022-11-09T03:05:58.841Z,53.25
2022-11-09T03:08:29.272Z,58.50
2022-11-09T03:11:01.914Z,58.75
2022-11-09T03:13:33.807Z,63.75
2022-11-09T03:16:09.601Z,53.33
2022-11-09T03:18:40.600Z,56.00
2022-11-09T03:21:14.195Z,57.50
2022-11-09T03:23:44.624Z,48.25
2022-11-09T03:26:18.285Z,52.50
2022-11-09T03:28:51.006Z,53.00
2022-11-09T03:31:21.366Z,52.25
2022-11-09T03:33:51.785Z,49.25
2022-11-09T03:36:21.993Z,39.25
2022-11-09T03:38:55.781Z,43.75
2022-11-09T03:41:28.848Z,44.50
2022-11-09T03:43:59.106Z,37.25
2022-11-09T03:46:29.948Z,47.00
2022-11-09T03:49:00.160Z,40.00
2022-11-09T03:51:30.483Z,53.75
2022-11-09T03:54:01.014Z,38.50
2022-11-09T03:56:31.502Z,37.50
2022-11-09T03:59:01.757Z,50.75
2022-11-09T04:01:32.688Z,48.50
2022-11-09T04:04:03.093Z,47.00
2022-11-09T04:06:34.035Z,46.50
2022-11-09T04:09:04.345Z,40.50
2022-11-09T04:11:36.172Z,44.25
2022-11-09T04:14:06.639Z,45.25
2022-11-09T04:16:36.887Z,31.00
2022-11-09T04:19:07.388Z,39.75
2022-11-09T04:21:37.625Z,42.00
2022-11-09T04:24:08.111Z,43.25
2022-11-09T04:26:39.031Z,40.50
2022-11-09T04:29:10.525Z,47.75
2022-11-09T04:31:40.870Z,43.25
2022-11-09T04:34:12.099Z,42.50
2022-11-09T04:36:44.182Z,38.25
2022-11-09T04:39:14.379Z,47.00
2022-11-09T04:41:44.980Z,48.25
2022-11-09T04:44:15.124Z,41.25
2022-11-09T04:46:46.596Z,42.75
2022-11-09T04:49:17.038Z,35.25
2022-11-09T04:51:47.400Z,39.75
2022-11-09T04:54:17.795Z,43.25
2022-11-09T04:56:49.123Z,39.25
2022-11-09T04:59:20.796Z,37.75
2022-11-09T05:01:51.340Z,29.50
2022-11-09T05:04:21.819Z,47.25
2022-11-09T05:06:52.072Z,44.00
2022-11-09T05:09:23.795Z,51.25
2022-11-09T05:11:54.463Z,44.50
2022-11-09T05:14:49.777Z,49.00
2022-11-09T05:17:23.071Z,50.50
2022-11-09T05:19:55.901Z,53.25
2022-11-09T05:22:25.279Z,50.75
2022-11-09T05:24:56.595Z,50.25
2022-11-09T05:27:26.946Z,47.00
2022-11-09T05:30:02.109Z,55.25
2022-11-09T05:32:29.688Z,45.50
2022-11-09T05:35:00.310Z,52.75
2022-11-09T05:37:38.626Z,52.50
2022-11-09T05:40:12.423Z,54.75
2022-11-09T05:42:42.885Z,49.25
2022-11-09T05:45:40.831Z,62.75
2022-11-09T05:47:48.218Z,64.75
2022-11-09T05:50:18.924Z,63.75
2022-11-09T05:52:55.270Z,56.50
2022-11-09T05:55:25.680Z,54.00
2022-11-09T05:57:56.780Z,67.50
2022-11-09T06:00:27.635Z,73.00
2022-11-09T06:03:09.986Z,59.50
2022-11-09T06:05:42.138Z,78.50
2022-11-09T06:08:14.670Z,93.00
2022-11-09T06:10:45.486Z,90.50
2022-11-09T06:13:18.146Z,86.75
2022-11-09T06:15:59.788Z,100.50
2022-11-09T06:18:32.444Z,93.75
2022-11-09T06:21:05.407Z,94.00
2022-11-09T06:23:35.759Z,85.00
2022-11-09T06:26:29.535Z,92.75
2022-11-09T06:28:59.943Z,92.00
2022-11-09T06:31:30.275Z,87.00
2022-11-09T06:34:00.563Z,76.00
2022-11-09T06:36:31.303Z,64.25
2022-11-09T06:39:03.223Z,47.00
2022-11-09T06:41:34.952Z,41.25
2022-11-09T06:44:09.327Z,46.00
2022-11-09T06:46:42.409Z,31.75
2022-11-09T06:49:14.300Z,36.25
2022-11-09T06:51:45.248Z,43.00
2022-11-09T06:54:15.828Z,45.25
2022-11-09T06:56:46.129Z,47.50
2022-11-09T06:59:17.045Z,51.00
2022-11-09T07:01:48.358Z,56.00
2022-11-09T07:04:25.844Z,55.00
2022-11-09T07:06:59.167Z,54.25
2022-11-09T07:09:26.633Z,56.75
2022-11-09T07:11:59.553Z,57.50
2022-11-09T07:14:29.991Z,47.50
2022-11-09T07:17:00.536Z,58.75
2022-11-09T07:19:35.608Z,56.25
2022-11-09T07:25:20.528Z,49.25
2022-11-09T07:27:51.082Z,46.25
2022-11-09T07:30:21.413Z,60.00
2022-11-09T07:33:09.969Z,63.00
2022-11-09T07:35:26.206Z,55.25
2022-11-09T07:38:01.180Z,51.75
2022-11-09T07:40:34.302Z,59.50
2022-11-09T07:43:06.943Z,53.00
2022-11-09T07:45:38.352Z,61.00
2022-11-09T07:48:11.447Z,57.00
2022-11-09T07:50:43.023Z,60.25
2022-11-09T07:53:17.718Z,60.75
2022-11-09T07:56:00.893Z,57.75
2022-11-09T07:58:33.082Z,68.00
2022-11-09T08:01:09.817Z,62.50
2022-11-09T08:03:42.442Z,65.00
2022-11-09T08:08:53.599Z,62.25
2022-11-09T08:11:27.187Z,62.50
2022-11-09T08:14:07.665Z,65.75
2022-11-09T08:18:30.622Z,62.00
2022-11-09T08:19:33.229Z,62.50
2022-11-09T08:22:10.900Z,62.00
2022-11-09T08:24:44.296Z,68.00
2022-11-09T08:27:19.557Z,69.25
2022-11-09T08:29:56.333Z,63.50
2022-11-09T08:32:24.686Z,56.00
2022-11-09T08:35:13.873Z,68.75
2022-11-09T08:37:45.599Z,68.25
2022-11-09T08:40:26.741Z,68.75
2022-11-09T08:43:09.190Z,64.50
2022-11-09T08:45:42.697Z,70.75
2022-11-09T08:48:13.895Z,67.75
2022-11-09T08:50:45.455Z,64.75
2022-11-09T08:53:17.477Z,55.25
2022-11-09T08:55:49.572Z,65.00
2022-11-09T08:58:21.395Z,67.50
2022-11-09T09:03:46.406Z,62.75
2022-11-09T09:06:17.128Z,62.50
2022-11-09T09:26:39.661Z,53.75
2022-11-09T09:29:20.304Z,54.25
2022-11-09T09:31:46.140Z,57.00
2022-11-09T09:34:16.947Z,50.50
2022-11-09T09:36:51.114Z,56.75
2022-11-09T09:39:40.896Z,57.75
2022-11-09T09:42:07.714Z,58.00
2022-11-09T09:44:49.484Z,53.00
2022-11-09T09:47:37.527Z,58.00
2022-11-09T09:50:10.963Z,43.75
2022-11-09T09:53:17.762Z,49.00
2022-11-09T09:58:30.573Z,46.75
2022-11-09T10:01:28.083Z,56.25
2022-11-09T10:03:59.544Z,44.75
2022-11-09T10:06:36.673Z,51.00
2022-11-09T10:09:28.167Z,54.75
2022-11-09T10:12:17.709Z,47.00
2022-11-09T10:15:17.892Z,58.00
2022-11-09T10:18:12.604Z,59.25
2022-11-09T10:20:55.268Z,57.50
2022-11-09T10:23:28.632Z,52.25
2022-11-09T10:26:24.449Z,53.75
2022-11-09T10:29:16.198Z,55.50
2022-11-09T10:31:59.618Z,49.25
2022-11-09T10:34:44.525Z,49.50
2022-11-09T10:37:46.008Z,46.75
2022-11-09T10:44:23.005Z,46.00
2022-11-09T10:53:45.684Z,36.00
2022-11-09T10:56:21.276Z,47.00
2022-11-09T10:58:54.112Z,54.25
2022-11-09T11:01:27.560Z,36.25
2022-11-09T11:04:09.252Z,53.00
2022-11-09T11:06:43.621Z,55.25
2022-11-09T11:09:21.776Z,56.00
2022-11-09T11:12:27.434Z,45.25
2022-11-09T11:14:58.400Z,47.75
2022-11-09T11:17:31.676Z,50.75
2022-11-09T11:20:10.713Z,52.25
2022-11-09T11:22:42.560Z,43.50
2022-11-09T11:25:19.103Z,50.25
2022-11-09T11:27:55.565Z,48.00
2022-11-09T11:30:31.585Z,49.00
2022-11-09T11:33:02.420Z,40.00
2022-11-09T11:35:42.939Z,52.00
2022-11-09T11:38:22.729Z,53.50
2022-11-09T11:41:32.875Z,43.75
2022-11-09T11:44:22.971Z,49.00
2022-11-09T11:47:02.307Z,42.50
2022-11-09T11:49:44.685Z,53.25
2022-11-09T11:52:18.522Z,47.00
2022-11-09T11:55:12.304Z,50.00
2022-11-09T11:57:58.056Z,44.50
2022-11-09T12:00:32.963Z,49.25
2022-11-09T12:03:14.461Z,45.25
2022-11-09T12:06:13.814Z,47.25
2022-11-09T12:08:49.937Z,51.75
2022-11-09T12:11:41.357Z,44.00
2022-11-09T12:14:29.196Z,40.25
2022-11-09T12:17:12.552Z,55.00
2022-11-09T12:21:08.276Z,44.25
2022-11-09T12:23:20.482Z,45.25
2022-11-09T12:26:15.502Z,47.25
2022-11-09T12:35:36.564Z,43.50
2022-11-09T12:38:31.276Z,48.50
2022-11-09T12:41:04.862Z,42.00
2022-11-09T12:46:58.999Z,51.50
2022-11-09T12:49:38.573Z,54.00
2022-11-09T12:52:18.264Z,48.25
2022-11-09T12:54:50.246Z,32.00
2022-11-09T13:00:38.541Z,45.75
2022-11-09T13:06:07.407Z,48.75
2022-11-09T13:08:38.730Z,49.00
2022-11-09T13:11:22.252Z,50.75
2022-11-09T13:13:54.944Z,47.25
2022-11-09T13:16:37.589Z,49.00
2022-11-09T13:19:09.981Z,51.25
2022-11-09T13:21:52.703Z,47.00
2022-11-09T13:25:07.981Z,46.00
2022-11-09T13:31:00.309Z,41.50
2022-11-09T13:38:05.821Z,49.50
2022-11-09T13:41:05.858Z,55.75
2022-11-09T13:49:31.801Z,46.00
2022-11-09T13:52:02.308Z,51.50
2022-11-09T13:54:36.154Z,43.00
2022-11-09T13:57:09.213Z,50.75
2022-11-09T13:59:42.793Z,41.00
2022-11-09T14:02:40.571Z,41.25
2022-11-09T14:05:31.747Z,51.75
2022-11-09T14:08:08.999Z,47.75
2022-11-09T14:11:16.836Z,43.25
2022-11-09T14:14:13.006Z,39.00
2022-11-09T14:17:10.211Z,44.25
2022-11-09T14:19:44.781Z,36.00
2022-11-09T14:22:20.379Z,44.50
2022-11-09T14:24:50.965Z,47.25
2022-11-09T14:27:23.301Z,44.00
2022-11-09T14:29:58.818Z,53.25
2022-11-09T14:32:34.757Z,50.50
2022-11-09T14:35:31.799Z,54.75
2022-11-09T14:38:05.175Z,49.25
2022-11-09T14:40:35.514Z,54.50
2022-11-09T14:43:30.394Z,63.75
2022-11-09T14:46:07.992Z,47.50
2022-11-09T14:51:21.897Z,58.00
2022-11-09T14:53:57.306Z,57.50
2022-11-09T14:56:42.405Z,59.00
2022-11-09T14:59:22.100Z,52.75
2022-11-09T15:02:16.127Z,69.25
2022-11-09T15:07:59.184Z,68.50
2022-11-09T15:10:48.421Z,61.50
2022-11-09T15:13:24.658Z,71.00
2022-11-09T15:15:57.131Z,74.25
2022-11-09T15:21:54.838Z,79.50
2022-11-09T15:24:30.059Z,87.50
2022-11-09T15:27:02.254Z,82.25
2022-11-09T15:29:41.946Z,95.00
2022-11-09T15:32:18.650Z,86.50
2022-11-09T15:34:56.007Z,90.00
2022-11-09T15:37:52.441Z,102.50
2022-11-09T15:40:25.614Z,105.25
2022-11-09T15:42:59.250Z,96.00
2022-11-09T15:45:34.645Z,93.50
2022-11-09T15:48:05.331Z,88.75
2022-11-09T15:50:40.614Z,86.00
2022-11-09T15:53:13.025Z,85.50
2022-11-09T15:55:44.418Z,89.50
2022-11-09T15:58:19.325Z,87.25
2022-11-09T16:00:55.217Z,86.00
2022-11-09T16:03:27.400Z,84.50
2022-11-09T16:05:59.652Z,84.00
2022-11-09T16:08:30.888Z,67.50
2022-11-09T16:14:11.099Z,85.00
2022-11-09T16:16:44.234Z,79.50
2022-11-09T16:19:16.337Z,95.50
2022-11-09T16:21:53.215Z,90.25
2022-11-09T16:24:33.982Z,85.50
2022-11-09T16:27:12.504Z,85.00
2022-11-09T16:29:38.707Z,80.75
2022-11-09T16:32:10.090Z,78.50
2022-11-09T16:34:42.032Z,86.75
2022-11-09T16:37:12.761Z,84.50
2022-11-09T16:39:43.010Z,91.75
2022-11-09T16:42:16.141Z,79.50
2022-11-09T16:44:50.430Z,92.25
2022-11-09T16:47:24.339Z,96.75
2022-11-09T16:49:56.013Z,94.75
2022-11-09T16:52:26.577Z,91.75
2022-11-09T16:54:58.919Z,96.00
2022-11-09T16:57:29.917Z,87.75
2022-11-09T17:00:00.283Z,106.75
2022-11-09T17:02:30.691Z,98.25
2022-11-09T17:05:03.973Z,94.50
2022-11-09T17:07:38.372Z,107.25
2022-11-09T17:10:34.131Z,102.25
2022-11-09T17:13:08.691Z,104.00
2022-11-09T17:15:44.458Z,99.75
2022-11-09T17:18:17.294Z,109.25
2022-11-09T17:20:51.831Z,95.00
2022-11-09T17:23:24.667Z,96.00
2022-11-09T17:25:57.361Z,98.75
2022-11-09T17:28:28.895Z,97.25
2022-11-09T17:31:13.868Z,97.25
2022-11-09T17:33:45.015Z,97.00
2022-11-09T17:37:02.300Z,100.25
2022-11-09T17:39:08.188Z,107.00
2022-11-09T17:41:42.680Z,107.25
2022-11-09T17:44:12.255Z,108.50
2022-11-09T17:46:46.310Z,111.75
2022-11-09T17:49:16.553Z,79.25
2022-11-09T17:51:48.414Z,93.50
2022-11-09T17:54:18.793Z,101.00
2022-11-09T17:56:58.362Z,105.75
2022-11-09T17:59:31.321Z,87.00
2022-11-09T18:02:04.843Z,91.00
2022-11-09T18:04:38.519Z,96.25
2022-11-09T18:07:08.979Z,96.00
2022-11-09T18:09:41.891Z,89.50
2022-11-09T18:12:13.383Z,97.00
2022-11-09T18:14:46.903Z,95.25
2022-11-09T18:17:17.250Z,93.50
2022-11-09T18:19:55.333Z,79.00
2022-11-09T18:22:25.719Z,85.25
2022-11-09T18:24:56.014Z,85.75
2022-11-09T18:27:30.495Z,72.00
2022-11-09T18:30:21.194Z,77.00
2022-11-09T18:32:53.275Z,73.75
2022-11-09T18:35:23.705Z,79.25
2022-11-09T18:40:49.700Z,73.75
2022-11-09T18:43:23.911Z,77.25
2022-11-09T18:46:01.307Z,80.25
2022-11-09T18:48:33.487Z,76.50
2022-11-09T18:51:06.990Z,79.00
2022-11-09T18:53:41.487Z,80.25
2022-11-09T18:58:58.010Z,77.75
2022-11-09T19:02:27.731Z,118.75
2022-11-09T19:04:27.182Z,83.50
2022-11-09T19:06:57.831Z,92.00
2022-11-09T19:09:31.424Z,93.00
2022-11-09T19:12:05.105Z,90.50
2022-11-09T19:14:38.698Z,86.50
2022-11-09T19:17:29.831Z,94.00
2022-11-09T19:23:13.090Z,92.75
2022-11-09T19:25:45.500Z,89.00
2022-11-09T19:28:16.276Z,97.25
2022-11-09T19:30:48.478Z,86.25
2022-11-09T19:33:26.750Z,97.00
2022-11-09T19:36:29.064Z,92.25
2022-11-09T19:38:48.508Z,96.00
2022-11-09T19:41:19.893Z,92.00
2022-11-09T19:43:52.923Z,97.00
2022-11-09T19:46:27.590Z,91.50
2022-11-09T19:49:21.928Z,100.50
2022-11-09T19:51:55.947Z,97.75
2022-11-09T19:54:46.951Z,102.50
2022-11-09T19:57:22.150Z,100.00
2022-11-09T19:59:54.412Z,99.50
2022-11-09T20:02:25.273Z,98.25
2022-11-09T20:04:55.599Z,102.25
2022-11-09T20:07:27.043Z,93.00
2022-11-09T20:10:06.475Z,101.50
2022-11-09T20:12:36.672Z,95.25
2022-11-09T20:15:08.824Z,94.50
2022-11-09T20:17:47.421Z,95.25
2022-11-09T20:20:19.458Z,69.00
2022-11-09T20:22:51.187Z,94.25
2022-11-09T20:25:21.766Z,90.25
2022-11-09T20:27:58.687Z,92.00
2022-11-09T20:30:35.121Z,87.50
2022-11-09T20:33:06.044Z,90.50
2022-11-09T20:35:46.693Z,85.50
2022-11-09T20:38:17.174Z,85.50
2022-11-09T20:41:02.932Z,83.25
2022-11-09T20:43:38.559Z,84.00
2022-11-09T20:46:11.980Z,78.25
2022-11-09T20:48:54.462Z,79.25
2022-11-09T20:51:24.997Z,73.75
2022-11-09T20:54:07.906Z,71.00
2022-11-09T20:57:00.210Z,75.00
2022-11-09T20:59:44.152Z,69.25
2022-11-09T21:02:33.979Z,69.75
2022-11-09T21:05:25.117Z,64.00
2022-11-09T21:08:10.429Z,69.25
2022-11-09T21:10:41.918Z,64.75
2022-11-09T21:13:21.418Z,69.00
2022-11-09T21:15:52.734Z,62.25
2022-11-09T21:18:25.394Z,64.50
2022-11-09T21:20:56.772Z,66.25
2022-11-09T21:23:27.590Z,67.25
2022-11-09T21:26:05.603Z,73.75
2022-11-09T21:28:36.001Z,71.50
2022-11-09T21:31:07.058Z,68.50
2022-11-09T21:33:39.796Z,77.75
2022-11-09T21:36:14.794Z,80.75
2022-11-09T21:38:45.137Z,72.50
2022-11-09T21:41:16.034Z,75.75
2022-11-09T21:43:49.517Z,74.25
2022-11-09T21:46:24.351Z,78.00
2022-11-09T21:49:04.844Z,62.50
2022-11-09T21:51:40.733Z,80.75
2022-11-09T21:54:11.316Z,84.25
2022-11-09T21:56:41.823Z,76.25
2022-11-09T21:59:15.442Z,75.50
2022-11-09T22:01:47.526Z,85.25
2022-11-09T22:04:17.891Z,77.25
2022-11-09T22:06:50.664Z,70.75
2022-11-09T22:09:21.016Z,76.50
2022-11-09T22:11:51.421Z,75.25
2022-11-09T22:14:22.415Z,77.25
2022-11-09T22:16:52.971Z,70.75
2022-11-09T22:19:23.865Z,66.75
2022-11-09T22:21:55.779Z,70.25
2022-11-09T22:27:38.182Z,73.50
2022-11-09T22:30:08.967Z,71.25
2022-11-09T22:32:40.775Z,73.00
2022-11-09T22:35:11.223Z,62.25
2022-11-09T22:37:42.038Z,69.75
2022-11-09T22:40:12.838Z,70.50
2022-11-09T22:42:45.116Z,72.50
2022-11-09T22:45:17.727Z,69.50
2022-11-09T22:47:55.194Z,65.25
2022-11-09T22:50:26.419Z,57.75
2022-11-09T22:53:00.943Z,64.25
2022-11-09T22:55:32.345Z,72.00
2022-11-09T22:58:08.569Z,67.50
2022-11-09T23:00:44.736Z,61.25
2022-11-09T23:03:15.649Z,68.25
2022-11-09T23:05:50.484Z,71.25
2022-11-09T23:08:20.824Z,62.50
2022-11-09T23:10:56.919Z,68.00
2022-11-09T23:13:27.345Z,70.00
2022-11-09T23:16:00.449Z,70.25
2022-11-09T23:18:34.387Z,68.75
2022-11-09T23:21:08.062Z,61.00
2022-11-09T23:23:39.351Z,67.75
2022-11-09T23:26:12.032Z,62.75
2022-11-09T23:28:44.110Z,66.50
2022-11-09T23:31:17.498Z,64.50
2022-11-09T23:33:51.152Z,56.75
2022-11-09T23:36:24.246Z,65.50
2022-11-09T23:38:54.987Z,58.00
2022-11-09T23:41:25.301Z,61.25
2022-11-09T23:43:56.418Z,60.25
2022-11-09T23:46:26.745Z,57.75
2022-11-09T23:48:58.878Z,67.50
2022-11-09T23:51:30.006Z,46.25
2022-11-09T23:54:00.414Z,59.25
2022-11-09T23:56:30.963Z,70.00
2022-11-09T23:59:01.184Z,63.25
